Time;durP1;ratioP1;P1;durP2;ratioP2;P2;SDS_P1;SDS_P2;PMS_P1;PMS_P2;Temp;Humidity;BMP_temperature;BMP_pressure;BME280_temperature;BME280_humidity;BME280_pressure;Samples;Min_cycle;Max_cycle;Signal;HPM_P1;HPM_P2
2022/04/20 00:01:23;;;;;;;5.30;2.25;;;6.00;1.00;;;;;;5135982;27;20078;-26
2022/04/20 00:03:49;;;;;;;3.97;1.98;;;6.00;1.00;;;;;;5133620;27;20039;-26
2022/04/20 00:06:15;;;;;;;5.70;2.13;;;6.00;1.00;;;;;;5133614;27;20047;-26
2022/04/20 00:08:41;;;;;;;6.20;2.30;;;6.00;1.00;;;;;;5135006;27;20373;-26
2022/04/20 00:11:08;;;;;;;3.72;2.40;;;5.90;1.00;;;;;;5100484;27;20050;-26
2022/04/20 00:13:34;;;;;;;8.00;2.60;;;5.80;1.00;;;;;;5095652;28;20399;-26
2022/04/20 00:16:00;;;;;;;5.95;3.15;;;5.80;1.00;;;;;;5115404;27;20505;-26
2022/04/20 00:18:26;;;;;;;3.88;2.50;;;5.70;1.00;;;;;;5114615;28;20049;-26
2022/04/20 00:20:52;;;;;;;4.13;2.72;;;5.70;1.00;;;;;;5129239;27;20054;-26
2022/04/20 00:23:17;;;;;;;4.45;2.22;;;5.70;1.00;;;;;;5135599;27;20043;-26
2022/04/20 00:25:43;;;;;;;5.20;2.40;;;5.70;1.00;;;;;;5135010;27;20043;-26
2022/04/20 00:28:09;;;;;;;3.30;2.30;;;5.60;1.00;;;;;;5135550;27;20108;-26
2022/04/20 00:30:35;;;;;;;4.30;2.77;;;5.60;1.00;;;;;;5124322;27;20122;-26
2022/04/20 00:33:00;;;;;;;4.57;2.13;;;5.50;1.00;;;;;;5114880;28;20082;-26
2022/04/20 00:35:27;;;;;;;5.20;2.75;;;5.60;1.00;;;;;;5114351;28;20048;-26
2022/04/20 00:37:52;;;;;;;6.13;3.13;;;5.60;1.00;;;;;;5096980;28;20438;-25
2022/04/20 00:40:18;;;;;;;7.10;2.87;;;5.50;1.00;;;;;;5117803;27;20126;-26
2022/04/20 00:42:44;;;;;;;4.72;2.92;;;5.40;1.00;;;;;;5132124;28;20484;-26
2022/04/20 00:45:11;;;;;;;4.23;2.83;;;5.40;1.00;;;;;;5134056;27;20404;-26
2022/04/20 00:47:38;;;;;;;4.33;2.80;;;5.40;8.90;;;;;;5134970;27;20498;-27
2022/04/20 00:50:06;;;;;;;6.37;3.20;;;5.40;1.00;;;;;;5132966;27;20117;-26
2022/04/20 00:52:32;;;;;;;6.95;2.58;;;5.30;1.00;;;;;;5115724;28;20512;-26
2022/04/20 00:54:58;;;;;;;6.07;2.73;;;5.30;1.00;;;;;;5083962;28;20500;-26
2022/04/20 00:57:25;;;;;;;6.87;3.20;;;5.20;10.40;;;;;;5116291;28;20047;-26
2022/04/20 00:59:52;;;;;;;6.47;2.77;;;5.20;19.60;;;;;;5116311;28;20050;-26
2022/04/20 01:02:20;;;;;;;4.83;2.97;;;5.20;11.40;;;;;;5120877;28;20062;-26
2022/04/20 01:04:45;;;;;;;5.33;2.70;;;5.20;14.70;;;;;;5115636;28;20404;-26
2022/04/20 01:07:16;;;;;;;4.77;2.90;;;5.20;17.40;;;;;;5115319;28;20035;-26
2022/04/20 01:09:42;;;;;;;4.27;2.90;;;5.10;21.30;;;;;;5114583;28;20048;-26
2022/04/20 01:12:10;;;;;;;4.60;3.10;;;5.10;15.80;;;;;;5122738;28;20118;-26
2022/04/20 01:14:36;;;;;;;5.50;3.10;;;5.10;20.50;;;;;;5109687;28;20495;-26
2022/04/20 01:17:03;;;;;;;5.33;2.70;;;5.00;23.40;;;;;;5114148;28;20044;-26
2022/04/20 01:19:47;;;;;;;4.80;3.10;;;5.00;30.00;;;;;;5113882;28;20065;-26
2022/04/20 01:22:12;;;;;;;4.83;2.97;;;5.40;50.70;;;;;;5121826;28;20070;-26
2022/04/20 01:24:39;;;;;;;7.87;3.53;;;5.00;36.70;;;;;;5134343;28;20469;-26
2022/04/20 01:27:07;;;;;;;4.93;3.00;;;5.00;57.40;;;;;;5134418;28;20154;-26
2022/04/20 01:29:33;;;;;;;3.22;2.65;;;4.90;74.80;;;;;;5133140;28;20055;-26
2022/04/20 01:31:59;;;;;;;6.47;3.33;;;4.90;55.20;;;;;;5114941;28;20391;-26
2022/04/20 01:34:25;;;;;;;5.50;3.30;;;4.90;69.20;;;;;;5133623;28;20126;-26
2022/04/20 01:36:51;;;;;;;4.87;2.73;;;4.90;76.90;;;;;;5134228;28;20086;-26
2022/04/20 01:39:16;;;;;;;8.53;3.67;;;4.90;74.40;;;;;;5132293;28;20075;-26
2022/04/20 01:41:43;;;;;;;4.47;3.20;;;4.90;61.60;;;;;;5134238;28;20047;-26
2022/04/20 01:44:09;;;;;;;5.20;3.40;;;4.90;71.20;;;;;;5114147;28;20039;-26
2022/04/20 01:46:35;;;;;;;5.90;2.87;;;4.80;81.00;;;;;;5134171;28;20053;-26
2022/04/20 01:49:02;;;;;;;5.37;3.53;;;4.80;73.90;;;;;;5132807;28;20126;-26
2022/04/20 01:54:12;;;;;;;3.83;2.83;;;4.80;95.90;;;;;;5132300;28;20058;-26
2022/04/20 01:56:38;;;;;;;4.63;3.00;;;4.80;93.10;;;;;;5134105;28;20047;-26
2022/04/20 01:59:04;;;;;;;7.67;3.50;;;4.80;90.80;;;;;;5111875;28;20053;-26
2022/04/20 02:04:14;;;;;;;6.13;3.70;;;4.90;93.40;;;;;;5133406;27;20046;-26
2022/04/20 02:06:39;;;;;;;4.80;3.13;;;4.80;97.20;;;;;;5137993;27;20047;-27
2022/04/20 02:09:05;;;;;;;5.03;3.47;;;4.80;98.90;;;;;;5136092;27;20051;-26
2022/04/20 02:11:31;;;;;;;6.23;3.50;;;4.80;95.00;;;;;;5138420;27;20039;-26
2022/04/20 02:13:58;;;;;;;4.57;3.10;;;4.80;98.90;;;;;;5136663;27;20461;-26
2022/04/20 02:16:24;;;;;;;5.33;3.63;;;4.70;96.80;;;;;;5100143;28;20100;-26
2022/04/20 02:18:50;;;;;;;4.77;3.50;;;4.80;99.50;;;;;;5098539;28;20409;-27
2022/04/20 02:21:15;;;;;;;5.23;3.77;;;5.30;99.60;;;;;;5099028;28;20067;-26
2022/04/20 02:23:41;;;;;;;5.03;3.80;;;4.80;99.90;;;;;;5098573;28;20404;-26
2022/04/20 02:26:07;;;;;;;7.53;3.50;;;4.80;99.90;;;;;;5113800;27;20046;-26
2022/04/20 02:28:33;;;;;;;8.10;3.73;;;4.80;99.90;;;;;;5133309;27;20054;-26
2022/04/20 02:30:59;;;;;;;6.20;4.10;;;4.90;99.90;;;;;;5138062;27;20043;-27
2022/04/20 02:33:24;;;;;;;6.47;4.40;;;4.90;99.90;;;;;;5137121;27;20469;-28
2022/04/20 02:35:51;;;;;;;8.20;4.40;;;4.90;99.90;;;;;;5133592;27;20050;-27
2022/04/20 02:38:17;;;;;;;7.77;4.13;;;4.90;99.90;;;;;;5137133;27;20104;-27
2022/04/20 02:40:43;;;;;;;6.47;3.77;;;5.00;99.90;;;;;;5136927;27;20485;-27
2022/04/20 02:43:10;;;;;;;4.90;3.37;;;4.80;99.90;;;;;;5134913;27;20039;-27
2022/04/20 02:45:36;;;;;;;8.07;4.23;;;4.80;99.90;;;;;;5135154;27;20046;-27
2022/04/20 02:48:02;;;;;;;6.20;3.50;;;4.70;99.90;;;;;;5065973;28;20078;-27
2022/04/20 02:50:28;;;;;;;6.53;3.63;;;4.70;99.90;;;;;;5116616;28;20075;-27
2022/04/20 02:52:55;;;;;;;6.40;3.50;;;4.80;99.90;;;;;;5117892;27;20562;-28
2022/04/20 02:55:21;;;;;;;13.10;3.83;;;4.80;99.90;;;;;;5116261;28;20083;-27
2022/04/20 02:57:47;;;;;;;6.27;3.83;;;4.70;99.90;;;;;;5117598;27;20196;-27
2022/04/20 03:00:14;;;;;;;6.00;3.73;;;4.70;99.90;;;;;;5124867;27;20046;-27
2022/04/20 03:02:40;;;;;;;5.90;4.13;;;4.60;99.90;;;;;;5133868;27;20089;-27
2022/04/20 03:05:06;;;;;;;6.30;4.00;;;4.60;99.90;;;;;;5118292;27;20101;-28
2022/04/20 03:07:32;;;;;;;7.73;3.80;;;4.50;99.90;;;;;;5116642;27;20039;-27
2022/04/20 03:09:57;;;;;;;7.80;4.27;;;4.50;99.90;;;;;;5135027;27;20046;-27
2022/04/20 03:12:23;;;;;;;8.47;4.20;;;4.40;99.90;;;;;;5117743;27;20066;-27
2022/04/20 03:14:51;;;;;;;9.13;4.43;;;4.40;99.90;;;;;;5129257;27;20043;-27
2022/04/20 03:17:17;;;;;;;5.23;4.33;;;4.30;99.90;;;;;;5115821;28;20126;-28
2022/04/20 03:19:43;;;;;;;8.20;4.30;;;4.20;99.90;;;;;;5116802;27;20071;-28
2022/04/20 03:22:09;;;;;;;6.10;4.27;;;4.20;99.90;;;;;;5097478;28;20052;-27
2022/04/20 03:24:34;;;;;;;10.57;4.43;;;4.20;99.90;;;;;;5121099;27;20051;-27
2022/04/20 03:27:00;;;;;;;6.67;4.73;;;4.20;99.90;;;;;;5114326;28;20051;-27
2022/04/20 03:29:26;;;;;;;5.67;3.80;;;4.50;99.90;;;;;;5111075;28;20076;-28
2022/04/20 03:31:54;;;;;;;9.87;4.37;;;4.20;99.90;;;;;;5095674;28;20083;-27
2022/04/20 03:34:20;;;;;;;9.10;4.60;;;3.90;99.90;;;;;;5094819;28;20110;-27
2022/04/20 03:36:46;;;;;;;5.97;4.00;;;4.00;99.90;;;;;;5093850;28;20105;-27
2022/04/20 03:39:12;;;;;;;6.50;4.53;;;4.20;99.90;;;;;;5095924;28;20048;-28
2022/04/20 03:41:37;;;;;;;6.53;3.93;;;3.80;99.90;;;;;;5096106;28;20052;-27
2022/04/20 03:44:03;;;;;;;6.40;3.97;;;3.70;99.90;;;;;;5095444;28;20470;-28
2022/04/20 03:46:29;;;;;;;11.93;4.43;;;3.80;99.90;;;;;;5094909;28;20052;-27
2022/04/20 03:48:55;;;;;;;7.20;4.60;;;3.80;99.90;;;;;;5094745;28;20088;-27
2022/04/20 03:51:20;;;;;;;6.20;4.60;;;3.90;99.90;;;;;;5093415;28;20040;-28
2022/04/20 03:53:46;;;;;;;8.63;4.23;;;4.10;99.90;;;;;;5094607;28;20040;-27
2022/04/20 03:56:12;;;;;;;6.27;4.30;;;3.90;99.90;;;;;;5094640;28;20048;-27
2022/04/20 03:58:38;;;;;;;6.20;3.97;;;4.00;99.90;;;;;;5094616;28;20048;-27
2022/04/20 04:01:03;;;;;;;5.63;4.33;;;3.80;99.90;;;;;;5110747;28;20043;-27
2022/04/20 04:03:29;;;;;;;11.43;4.87;;;4.50;99.90;;;;;;5114241;28;20101;-28
2022/04/20 04:05:56;;;;;;;7.73;4.23;;;4.40;99.90;;;;;;5114823;28;20055;-27
2022/04/20 04:08:22;;;;;;;6.67;4.33;;;4.10;99.90;;;;;;5115379;28;20047;-27
2022/04/20 04:10:47;;;;;;;6.73;4.43;;;4.60;99.90;;;;;;5084111;28;20035;-28
2022/04/20 04:13:13;;;;;;;6.77;4.70;;;3.90;99.90;;;;;;5111191;28;20397;-27
2022/04/20 04:15:39;;;;;;;7.40;4.50;;;3.90;99.90;;;;;;5115221;28;20436;-27
2022/04/20 04:18:04;;;;;;;7.47;4.53;;;4.20;99.90;;;;;;5114654;28;20047;-27
2022/04/20 04:20:31;;;;;;;7.07;4.27;;;3.90;99.90;;;;;;5094984;28;20122;-27
2022/04/20 04:22:57;;;;;;;6.73;4.60;;;3.90;99.90;;;;;;5109286;28;20036;-27
2022/04/20 04:25:23;;;;;;;6.23;4.70;;;4.00;99.90;;;;;;5113331;28;20096;-28
2022/04/20 04:27:48;;;;;;;5.63;4.20;;;4.00;99.90;;;;;;5095573;28;20063;-27
2022/04/20 04:30:14;;;;;;;7.20;4.00;;;4.20;99.90;;;;;;5113311;28;20047;-27
2022/04/20 04:32:40;;;;;;;7.57;4.60;;;4.00;99.90;;;;;;5094593;28;20050;-27
2022/04/20 04:35:08;;;;;;;7.20;4.63;;;4.20;99.90;;;;;;5108075;28;20055;-27
2022/04/20 04:37:34;;;;;;;9.57;4.03;;;4.00;99.90;;;;;;5092774;28;20048;-27
2022/04/20 04:40:00;;;;;;;6.80;4.60;;;4.00;99.90;;;;;;5093880;28;20048;-27
2022/04/20 04:42:26;;;;;;;7.80;4.90;;;3.90;99.90;;;;;;5095679;28;20035;-27
2022/04/20 04:44:53;;;;;;;6.97;3.93;;;3.90;99.90;;;;;;5094791;28;20119;-28
2022/04/20 04:50:04;;;;;;;4.63;3.40;;;4.10;99.90;;;;;;5094679;28;20050;-27
2022/04/20 04:52:31;;;;;;;7.00;4.10;;;4.10;99.90;;;;;;5093396;28;20484;-27
2022/04/20 04:54:57;;;;;;;4.97;4.03;;;4.80;99.90;;;;;;5102346;28;20071;-27
2022/04/20 04:57:22;;;;;;;7.47;3.83;;;4.10;99.90;;;;;;5112969;28;20135;-27
2022/04/20 04:59:48;;;;;;;5.57;4.27;;;4.10;99.90;;;;;;5109919;28;20093;-28
2022/04/20 05:02:14;;;;;;;8.40;4.20;;;4.40;99.90;;;;;;5093289;28;20479;-27
2022/04/20 05:04:43;;;;;;;6.80;4.07;;;4.20;99.90;;;;;;5094647;28;20181;-27
2022/04/20 05:07:09;;;;;;;6.63;4.43;;;4.60;99.90;;;;;;5092657;28;20094;-27
2022/04/20 05:09:35;;;;;;;9.60;4.43;;;4.40;99.90;;;;;;5094658;28;20075;-27
2022/04/20 05:12:01;;;;;;;7.77;4.17;;;4.40;99.90;;;;;;5093617;28;20126;-27
2022/04/20 05:14:27;;;;;;;12.27;3.70;;;4.50;99.90;;;;;;5094562;28;20185;-27
2022/04/20 05:16:55;;;;;;;8.77;3.70;;;4.40;99.90;;;;;;5093566;28;20040;-27
2022/04/20 05:19:21;;;;;;;5.67;3.70;;;4.70;99.90;;;;;;5094489;28;20117;-27
2022/04/20 05:21:47;;;;;;;5.03;3.50;;;4.60;99.90;;;;;;5093533;28;20427;-27
2022/04/20 05:24:14;;;;;;;5.35;3.38;;;4.70;99.90;;;;;;5094048;28;20412;-28
2022/04/20 05:26:40;;;;;;;6.50;3.70;;;4.80;99.90;;;;;;5098037;28;20104;-28
2022/04/20 05:29:06;;;;;;;5.40;3.67;;;5.00;99.90;;;;;;5099091;28;20052;-27
2022/04/20 05:31:32;;;;;;;6.45;3.80;;;5.10;99.90;;;;;;5113795;28;20043;-28
2022/04/20 05:33:58;;;;;;;9.05;4.07;;;5.00;99.90;;;;;;5113642;28;20470;-27
2022/04/20 05:36:23;;;;;;;7.75;3.70;;;5.20;99.90;;;;;;5114821;28;20505;-27
2022/04/20 05:41:39;;;;;;;8.80;3.63;;;5.60;99.90;;;;;;5117984;28;20051;-27
2022/04/20 05:44:06;;;;;;;5.20;3.65;;;6.10;99.90;;;;;;5117653;28;20049;-27
2022/04/20 05:46:32;;;;;;;5.38;3.42;;;5.50;99.90;;;;;;5123933;27;20043;-27
2022/04/20 05:48:58;;;;;;;7.30;3.72;;;5.70;99.90;;;;;;5138101;27;20051;-27
2022/04/20 05:51:23;;;;;;;7.60;3.63;;;5.60;99.90;;;;;;5128461;27;20042;-28
2022/04/20 05:53:49;;;;;;;6.25;3.20;;;5.70;99.90;;;;;;5099188;28;20051;-27
2022/04/20 05:56:15;;;;;;;6.60;4.05;;;6.10;99.90;;;;;;5100322;28;20122;-27
2022/04/20 05:58:41;;;;;;;9.10;3.63;;;5.90;99.90;;;;;;5117363;28;20050;-28
2022/04/20 06:01:06;;;;;;;9.50;3.78;;;5.90;99.90;;;;;;5119145;27;20473;-27
2022/04/20 06:03:32;;;;;;;5.25;3.30;;;6.20;99.90;;;;;;5099174;28;20046;-27
2022/04/20 06:06:01;;;;;;;4.88;3.13;;;6.10;99.90;;;;;;5117689;28;20105;-29
2022/04/20 06:08:27;;;;;;;5.05;3.10;;;6.20;99.90;;;;;;5117401;28;20046;-27
2022/04/20 06:10:53;;;;;;;8.88;4.30;;;6.50;99.90;;;;;;5101320;27;20122;-28
2022/04/20 06:13:19;;;;;;;8.02;3.97;;;6.30;99.90;;;;;;5098914;28;20043;-27
2022/04/20 06:15:44;;;;;;;7.13;4.00;;;6.40;99.90;;;;;;5117027;28;20523;-28
2022/04/20 06:18:10;;;;;;;6.57;3.88;;;6.50;99.90;;;;;;5117496;28;20048;-28
2022/04/20 06:20:36;;;;;;;8.95;4.20;;;6.90;99.90;;;;;;5117247;28;20123;-28
2022/04/20 06:23:01;;;;;;;9.07;4.10;;;6.90;99.90;;;;;;5126586;27;20047;-28
2022/04/20 06:25:27;;;;;;;6.22;3.88;;;6.70;99.90;;;;;;5136639;27;20443;-27
2022/04/20 06:27:53;;;;;;;6.05;3.25;;;6.70;99.90;;;;;;5136540;27;20058;-28
2022/04/20 06:30:18;;;;;;;7.97;3.78;;;6.90;99.90;;;;;;5125637;27;20521;-29
2022/04/20 06:32:44;;;;;;;5.75;4.10;;;6.90;99.90;;;;;;5132888;27;20042;-28
2022/04/20 06:35:10;;;;;;;8.93;3.70;;;7.20;99.90;;;;;;5137100;27;20047;-28
2022/04/20 06:37:36;;;;;;;6.30;4.32;;;7.20;99.90;;;;;;5101526;27;20054;-28
2022/04/20 06:40:01;;;;;;;6.97;3.63;;;7.20;99.90;;;;;;5136830;27;20050;-28
2022/04/20 06:42:28;;;;;;;5.30;3.70;;;7.30;99.90;;;;;;5133937;27;20058;-28
2022/04/20 06:44:53;;;;;;;4.60;3.47;;;7.40;99.90;;;;;;5132391;27;20120;-28
2022/04/20 06:47:19;;;;;;;6.18;3.95;;;7.50;99.90;;;;;;5107244;28;20093;-28
2022/04/20 06:49:44;;;;;;;5.00;3.42;;;7.60;99.90;;;;;;5124475;27;20031;-28
2022/04/20 07:00:25;;;;;;;7.68;4.20;;;8.10;77.00;;;;;;5132716;27;20047;-28
2022/04/20 07:03:06;;;;;;;5.93;4.10;;;8.30;65.50;;;;;;5118818;27;20043;-28
2022/04/20 07:05:33;;;;;;;5.20;3.75;;;8.40;18.40;;;;;;5116895;28;20055;-28
2022/04/20 07:08:00;;;;;;;6.60;4.15;;;8.40;25.80;;;;;;5134037;27;20511;-28
2022/04/20 07:10:27;;;;;;;4.25;3.33;;;8.60;1.00;;;;;;5103010;28;20485;-28
2022/04/20 07:12:53;;;;;;;6.20;3.63;;;8.60;1.00;;;;;;5111501;27;20449;-28
2022/04/20 07:15:19;;;;;;;6.30;4.22;;;8.70;1.00;;;;;;5123662;27;20127;-28
2022/04/20 07:17:45;;;;;;;4.43;3.22;;;8.90;1.00;;;;;;5121602;27;20052;-28
2022/04/20 07:20:17;;;;;;;6.38;3.78;;;9.00;1.00;;;;;;5117118;27;20059;-28
2022/04/20 07:22:47;;;;;;;8.15;3.88;;;9.10;1.00;;;;;;5116269;28;20039;-29
2022/04/20 07:25:14;;;;;;;8.40;3.83;;;9.20;1.00;;;;;;5115330;28;20044;-28
2022/04/20 07:27:40;;;;;;;4.25;3.17;;;9.30;1.00;;;;;;5117654;27;20058;-28
2022/04/20 07:30:06;;;;;;;9.38;4.30;;;9.40;1.00;;;;;;5115540;28;20396;-28
2022/04/20 07:32:32;;;;;;;4.93;3.58;;;9.50;1.00;;;;;;5115373;28;20133;-28
2022/04/20 07:34:58;;;;;;;6.18;4.15;;;9.50;1.00;;;;;;5097221;28;20110;-28
2022/04/20 07:37:23;;;;;;;6.55;3.00;;;9.60;1.00;;;;;;5117392;27;20048;-29
2022/04/20 07:39:49;;;;;;;4.57;3.30;;;9.60;1.00;;;;;;5117374;27;20492;-28
2022/04/20 07:42:15;;;;;;;5.57;3.08;;;9.70;1.00;;;;;;5108304;27;20047;-28
2022/04/20 07:44:40;;;;;;;4.57;3.20;;;9.80;1.00;;;;;;5124996;27;20043;-28
2022/04/20 07:47:06;;;;;;;5.65;4.03;;;9.90;1.00;;;;;;5100714;27;20039;-28
2022/04/20 07:52:19;;;;;;;6.13;2.70;;;10.10;1.00;;;;;;5125126;27;20086;-28
2022/04/20 07:54:46;;;;;;;4.03;2.53;;;10.20;1.00;;;;;;5132448;27;20051;-28
2022/04/20 07:57:15;;;;;;;4.80;2.90;;;10.20;99.90;;;;;;5133282;27;20055;-27
2022/04/20 07:59:41;;;;;;;4.30;2.55;;;10.30;99.90;;;;;;5107432;27;20043;-27
2022/04/20 08:02:08;;;;;;;4.57;2.60;;;10.40;99.90;;;;;;5115632;27;20734;-27
2022/04/20 08:04:33;;;;;;;5.18;2.90;;;10.40;99.90;;;;;;5100403;27;20054;-27
2022/04/20 08:06:59;;;;;;;4.35;2.45;;;10.50;99.90;;;;;;5117955;27;20047;-28
2022/04/20 08:09:25;;;;;;;9.70;4.97;;;10.70;99.90;;;;;;5111117;27;20095;-27
2022/04/20 08:11:51;;;;;;;3.45;2.80;;;10.80;99.90;;;;;;5130522;27;20040;-27
2022/04/20 08:14:17;;;;;;;4.00;2.40;;;11.00;99.90;;;;;;5131066;27;20074;-27
2022/04/20 08:16:43;;;;;;;5.93;2.40;;;11.00;99.90;;;;;;5129946;27;20035;-27
2022/04/20 08:19:10;;;;;;;6.03;2.83;;;11.10;99.90;;;;;;5134114;27;20526;-27
2022/04/20 08:21:36;;;;;;;4.45;2.45;;;11.20;99.90;;;;;;5123875;27;20050;-27
2022/04/20 08:24:03;;;;;;;3.80;2.17;;;11.30;99.90;;;;;;5133050;27;20039;-26
2022/04/20 08:26:29;;;;;;;3.83;2.42;;;11.40;99.90;;;;;;5113246;27;20039;-27
2022/04/20 08:28:55;;;;;;;2.80;1.98;;;11.60;99.90;;;;;;5130459;27;20476;-28
2022/04/20 08:31:21;;;;;;;2.67;1.83;;;11.70;99.90;;;;;;5114193;27;20058;-27
2022/04/20 08:33:46;;;;;;;5.38;2.40;;;11.80;99.90;;;;;;5114654;27;20110;-27
2022/04/20 08:36:12;;;;;;;3.92;2.50;;;11.90;99.90;;;;;;5115019;27;20520;-28
2022/04/20 08:38:39;;;;;;;3.15;2.10;;;12.00;99.90;;;;;;5104752;27;20043;-28
2022/04/20 08:41:05;;;;;;;2.90;1.70;;;12.10;99.90;;;;;;5115306;28;20477;-27
2022/04/20 08:43:31;;;;;;;2.92;1.80;;;12.20;99.90;;;;;;5130972;27;20051;-27
2022/04/20 08:46:02;;;;;;;6.93;1.60;;;12.20;85.40;;;;;;5097446;28;20136;-27
2022/04/20 08:48:29;;;;;;;3.03;1.52;;;12.40;40.60;;;;;;5090862;27;20057;-27
2022/04/20 08:50:58;;;;;;;2.25;1.35;;;12.50;19.80;;;;;;5131447;27;20400;-27
2022/04/20 08:53:24;;;;;;;2.47;1.23;;;12.60;1.00;;;;;;5125005;27;20556;-27
2022/04/20 08:57:15;;;;;;;2.53;1.20;;;12.60;1.00;;;;;;5116514;27;20054;-27
2022/04/20 08:58:37;;;;;;;2.15;1.25;;;12.60;7.80;;;;;;5117728;28;20130;-29
2022/04/20 09:01:04;;;;;;;4.13;1.25;;;12.80;1.00;;;;;;5107899;28;20055;-27
2022/04/20 09:03:30;;;;;;;2.17;1.45;;;13.00;27.80;;;;;;5117406;28;20084;-27
2022/04/20 09:05:56;;;;;;;2.45;1.38;;;13.60;7.10;;;;;;5134252;28;20043;-27
2022/04/20 09:08:25;;;;;;;2.33;1.10;;;14.50;1.00;;;;;;5128830;28;20523;-27
2022/04/20 09:10:52;;;;;;;4.22;1.17;;;15.50;1.00;;;;;;5122815;28;20111;-27
2022/04/20 09:13:35;;;;;;;1.77;0.70;;;16.30;99.90;;;;;;5134011;27;20039;-27
2022/04/20 09:16:12;;;;;;;2.95;0.80;;;16.80;99.90;;;;;;5138466;27;20035;-27
2022/04/20 09:18:39;;;;;;;2.92;0.90;;;17.30;99.90;;;;;;5138601;27;20485;-27
2022/04/20 09:21:06;;;;;;;3.05;0.95;;;17.60;99.90;;;;;;5117979;27;20542;-27
2022/04/20 09:23:32;;;;;;;2.65;0.70;;;17.80;99.90;;;;;;5112586;27;20050;-28
2022/04/20 09:26:09;;;;;;;2.85;0.90;;;18.10;99.90;;;;;;5138571;27;20445;-27
2022/04/20 09:28:40;;;;;;;4.30;1.55;;;18.00;99.90;;;;;;5126306;27;20095;-27
2022/04/20 09:31:07;;;;;;;0.93;0.55;;;18.00;99.90;;;;;;5110792;27;20047;-27
2022/04/20 09:33:43;;;;;;;1.80;0.70;;;18.00;99.90;;;;;;5122518;27;20043;-28
2022/04/20 09:36:10;;;;;;;2.72;1.02;;;18.50;99.90;;;;;;5131686;27;20043;-28
2022/04/20 09:38:39;;;;;;;3.40;1.10;;;18.80;99.90;;;;;;5117621;27;20063;-28
2022/04/20 09:41:10;;;;;;;2.20;1.00;;;19.10;99.90;;;;;;5124020;27;20277;-27
2022/04/20 09:43:37;;;;;;;2.45;1.05;;;19.20;99.90;;;;;;5118267;28;20396;-27
2022/04/20 09:49:04;;;;;;;1.50;0.73;;;18.80;99.90;;;;;;5094482;27;20099;-28
2022/04/20 09:51:38;;;;;;;1.13;0.80;;;18.80;99.90;;;;;;5120506;27;20047;-27
2022/04/20 09:54:03;;;;;;;1.00;0.70;;;18.50;99.90;;;;;;5138235;27;20043;-28
2022/04/20 09:56:31;;;;;;;1.63;0.80;;;18.70;99.90;;;;;;5113449;28;20051;-27
2022/04/20 09:58:59;;;;;;;4.07;0.60;;;19.00;99.90;;;;;;5118557;27;20122;-27
2022/04/20 10:01:35;;;;;;;2.45;0.70;;;19.00;99.90;;;;;;5117326;28;20055;-27
2022/04/20 10:04:03;;;;;;;1.52;0.90;;;19.00;99.90;;;;;;5099698;28;20051;-28
2022/04/20 10:06:30;;;;;;;2.30;1.38;;;18.90;99.90;;;;;;5086746;28;20050;-27
2022/04/20 10:08:57;;;;;;;1.85;0.90;;;18.90;99.90;;;;;;5125292;27;20066;-27
2022/04/20 10:11:23;;;;;;;2.88;0.73;;;19.00;99.90;;;;;;5122998;27;20035;-29
2022/04/20 10:16:50;;;;;;;2.75;0.75;;;19.30;99.90;;;;;;5102543;28;20048;-27
2022/04/20 10:19:27;;;;;;;2.00;0.70;;;19.20;99.90;;;;;;5107944;27;20115;-28
2022/04/20 10:21:54;;;;;;;0.95;0.60;;;19.40;99.90;;;;;;5136202;27;20050;-27
2022/04/20 10:24:25;;;;;;;2.25;0.90;;;19.60;99.90;;;;;;5137007;27;20175;-27
2022/04/20 10:26:52;;;;;;;2.70;0.80;;;19.70;99.90;;;;;;5126640;27;20546;-28
2022/04/20 10:29:50;;;;;;;2.05;0.63;;;19.30;99.90;;;;;;5117617;28;20043;-28
2022/04/20 10:32:24;;;;;;;3.38;0.90;;;19.50;99.90;;;;;;5050967;27;20531;-28
2022/04/20 10:34:50;;;;;;;1.23;0.70;;;19.40;99.90;;;;;;5118960;27;20049;-28
2022/04/20 10:37:25;;;;;;;3.97;1.30;;;19.30;99.90;;;;;;5137119;27;20405;-28
2022/04/20 10:39:53;;;;;;;1.88;0.70;;;19.20;99.90;;;;;;5119012;27;20054;-27
2022/04/20 10:42:21;;;;;;;2.17;1.05;;;19.20;99.90;;;;;;5123623;27;20044;-30
2022/04/20 10:44:56;;;;;;;1.55;0.98;;;19.40;99.90;;;;;;5107784;27;20066;-28
2022/04/20 10:47:26;;;;;;;1.02;0.70;;;19.60;99.90;;;;;;5117290;28;20047;-27
2022/04/20 10:49:53;;;;;;;1.38;0.60;;;19.80;99.90;;;;;;5122157;27;20043;-28
2022/04/20 10:52:30;;;;;;;2.30;0.90;;;19.80;99.90;;;;;;5132536;27;20039;-28
2022/04/20 10:54:56;;;;;;;2.53;0.98;;;20.20;99.90;;;;;;5131128;27;20133;-27
2022/04/20 10:57:36;;;;;;;1.45;0.88;;;20.10;99.90;;;;;;5119912;27;20050;-28
2022/04/20 11:00:20;;;;;;;3.40;1.90;;;19.60;99.90;;;;;;5116587;28;20104;-27
2022/04/20 11:02:50;;;;;;;3.30;1.20;;;19.40;99.90;;;;;;5129817;27;20047;-28
2022/04/20 11:05:20;;;;;;;1.95;1.05;;;19.50;99.90;;;;;;5118973;27;20051;-28
2022/04/20 11:08:03;;;;;;;5.50;1.77;;;19.70;99.90;;;;;;5104991;27;20209;-28
2022/04/20 11:10:29;;;;;;;1.50;0.93;;;20.00;99.90;;;;;;5131550;27;20122;-28
2022/04/20 11:19:07;;;;;;;1.98;0.98;;;20.30;99.90;;;;;;5116038;28;20060;-27
2022/04/20 11:21:33;;;;;;;2.45;0.90;;;20.70;99.90;;;;;;5115280;27;20067;-27
2022/04/20 11:24:07;;;;;;;0.98;0.70;;;20.50;99.90;;;;;;5109075;28;20485;-27
2022/04/20 11:26:49;;;;;;;1.50;0.70;;;20.70;99.90;;;;;;5079923;28;20048;-27
2022/04/20 11:29:17;;;;;;;0.75;0.50;;;21.20;99.90;;;;;;5090116;27;20039;-27
2022/04/20 11:31:48;;;;;;;1.48;0.82;;;21.40;99.90;;;;;;5108678;28;20070;-27
2022/04/20 11:34:16;;;;;;;3.20;1.00;;;21.20;99.90;;;;;;5119018;27;20477;-29
2022/04/20 11:36:47;;;;;;;1.20;0.75;;;20.60;99.90;;;;;;5122231;27;20119;-28
2022/04/20 11:39:14;;;;;;;2.75;0.82;;;20.70;99.90;;;;;;5124953;27;20459;-29
2022/04/20 11:41:55;;;;;;;2.63;0.90;;;20.70;99.90;;;;;;5085181;28;20114;-27
2022/04/20 11:44:21;;;;;;;3.17;0.65;;;20.90;99.90;;;;;;5115966;27;20096;-27
2022/04/20 11:46:48;;;;;;;2.83;0.80;;;21.20;99.90;;;;;;5094737;27;20085;-27
2022/04/20 11:49:14;;;;;;;1.27;0.55;;;21.30;99.90;;;;;;5135766;27;20142;-27
2022/04/20 11:51:45;;;;;;;6.47;0.90;;;21.40;99.90;;;;;;5108593;27;21694;-27
2022/04/20 11:54:18;;;;;;;1.90;0.98;;;21.30;99.90;;;;;;5131390;27;20027;-27
2022/04/20 11:56:43;;;;;;;;;;;21.40;99.90;;;;;;5135193;27;20047;-27
2022/04/20 11:59:09;;;;;;;5.00;1.23;;;21.60;99.90;;;;;;5135018;27;20017;-27
2022/04/20 12:01:38;;;;;;;0.77;0.47;;;21.40;99.90;;;;;;5132754;27;20043;-27
2022/04/20 12:04:20;;;;;;;2.70;0.85;;;21.20;99.90;;;;;;5133682;27;20047;-27
2022/04/20 12:06:48;;;;;;;1.80;0.90;;;21.60;99.90;;;;;;5135460;27;20134;-27
2022/04/20 12:09:15;;;;;;;1.83;0.82;;;21.60;99.90;;;;;;5130880;27;20046;-27
2022/04/20 12:11:42;;;;;;;4.10;1.42;;;21.10;99.90;;;;;;5131810;27;20480;-27
2022/04/20 12:14:09;;;;;;;0.95;0.50;;;20.90;99.90;;;;;;5125280;27;20417;-27
2022/04/20 12:16:35;;;;;;;1.25;0.75;;;21.00;99.90;;;;;;5124437;27;20049;-28
2022/04/20 12:19:02;;;;;;;1.60;0.50;;;21.60;99.90;;;;;;5110925;27;20169;-29
2022/04/20 12:21:40;;;;;;;1.23;0.80;;;21.50;99.90;;;;;;5114623;27;20115;-27
2022/04/20 12:24:11;;;;;;;3.20;0.80;;;20.90;99.90;;;;;;5109468;27;20062;-27
2022/04/20 12:26:41;;;;;;;1.30;0.73;;;20.50;99.90;;;;;;5132010;27;20103;-27
2022/04/20 12:29:08;;;;;;;1.50;0.90;;;20.60;99.90;;;;;;5135048;27;20047;-27
2022/04/20 12:31:37;;;;;;;2.25;0.50;;;20.40;99.90;;;;;;5102658;27;20107;-27
2022/04/20 12:34:05;;;;;;;1.05;0.63;;;20.50;99.90;;;;;;5114608;27;20051;-27
2022/04/20 12:36:48;;;;;;;0.75;0.40;;;20.40;99.90;;;;;;5116689;27;20481;-27
2022/04/20 12:39:24;;;;;;;;;;;20.40;99.90;;;;;;5121918;27;20046;-27
2022/04/20 12:42:05;;;;;;;1.63;0.60;;;20.30;99.90;;;;;;5115383;27;19971;-27
2022/04/20 12:44:51;;;;;;;3.25;0.90;;;20.40;99.90;;;;;;5097823;28;20116;-28
2022/04/20 12:47:17;;;;;;;2.00;0.68;;;20.60;99.90;;;;;;5131547;27;20051;-27
2022/04/20 12:49:48;;;;;;;2.22;1.20;;;20.70;99.90;;;;;;5116806;27;20050;-27
2022/04/20 12:52:18;;;;;;;2.13;0.82;;;20.70;99.90;;;;;;5127634;27;20086;-27
2022/04/20 12:54:53;;;;;;;1.15;0.70;;;20.70;99.90;;;;;;5130455;27;20100;-28
2022/04/20 13:03:16;;;;;;;4.15;1.92;;;20.60;99.90;;;;;;5133650;28;20043;-27
2022/04/20 13:05:43;;;;;;;3.97;2.20;;;20.10;99.90;;;;;;5128379;28;20078;-29
2022/04/20 13:08:12;;;;;;;5.10;2.28;;;19.20;99.90;;;;;;5133359;28;20075;-28
2022/04/20 13:10:42;;;;;;;3.70;1.63;;;18.40;99.90;;;;;;5125764;28;20096;-28
2022/04/20 13:13:09;;;;;;;6.18;2.42;;;18.20;99.90;;;;;;5128314;28;20039;-29
2022/04/20 13:15:35;;;;;;;2.47;1.77;;;18.00;99.90;;;;;;5098057;28;20071;-28
2022/04/20 13:18:01;;;;;;;3.53;2.00;;;17.80;99.90;;;;;;5096072;28;20058;-27
2022/04/20 13:20:29;;;;;;;4.90;1.95;;;17.30;99.90;;;;;;5119892;28;20043;-27
2022/04/20 13:22:59;;;;;;;2.85;1.80;;;17.00;99.90;;;;;;5085523;28;20051;-28
2022/04/20 13:28:09;;;;;;;3.47;2.40;;;17.20;99.90;;;;;;5113619;28;20052;-28
2022/04/20 13:30:37;;;;;;;4.65;2.38;;;17.10;99.90;;;;;;5095945;28;20135;-28
2022/04/20 13:33:14;;;;;;;3.90;2.00;;;17.10;99.90;;;;;;5116492;28;20035;-28
2022/04/20 13:35:41;;;;;;;1.80;1.30;;;17.50;99.90;;;;;;5123188;28;20098;-28
2022/04/20 13:38:07;;;;;;;4.38;1.90;;;17.10;99.90;;;;;;5115889;28;20098;-28
2022/04/20 13:40:38;;;;;;;4.10;2.17;;;17.00;99.90;;;;;;5119436;28;20054;-28